createdAt,value
2022-10-13T17:59:58.106Z,13.77
2022-10-13T18:01:12.885Z,15.32
2022-10-13T18:02:19.100Z,20.70
2022-10-13T18:03:21.605Z,20.52
2022-10-13T18:04:28.902Z,20.30
2022-10-13T18:05:31.514Z,20.52
2022-10-13T18:06:40.057Z,21.20
2022-10-13T18:07:44.640Z,17.67
2022-10-13T18:08:47.142Z,19.50
2022-10-13T18:09:53.866Z,18.95
2022-10-13T18:11:11.245Z,17.48
2022-10-13T18:12:16.031Z,17.88
2022-10-13T18:13:18.065Z,18.77
2022-10-13T18:14:23.830Z,21.08
2022-10-13T18:15:28.557Z,23.20
2022-10-13T18:16:33.190Z,28.35
2022-10-13T18:17:37.759Z,33.65
2022-10-13T18:18:40.063Z,41.70
2022-10-13T18:19:45.409Z,54.08
2022-10-13T18:20:47.435Z,58.45
2022-10-13T18:21:53.128Z,67.93
2022-10-13T18:22:55.279Z,69.32
2022-10-13T18:24:02.118Z,62.30
2022-10-13T18:25:04.535Z,74.50
2022-10-13T18:26:11.977Z,60.88
2022-10-13T18:27:16.633Z,49.88
2022-10-13T18:28:18.719Z,39.10
2022-10-13T18:29:23.380Z,42.83
2022-10-13T18:30:28.268Z,45.65
2022-10-13T18:31:37.381Z,31.10
2022-10-13T18:32:42.231Z,33.53
2022-10-13T18:33:44.711Z,33.45
2022-10-13T18:34:49.323Z,30.55
2022-10-13T18:35:51.352Z,25.58
2022-10-13T18:36:56.926Z,31.27
2022-10-13T18:37:59.082Z,30.30
2022-10-13T18:39:06.279Z,29.70
2022-10-13T18:40:10.109Z,33.25
2022-10-13T18:41:15.493Z,25.92
2022-10-13T18:42:20.121Z,24.17
2022-10-13T18:43:22.359Z,23.75
2022-10-13T18:44:27.651Z,23.65
2022-10-13T18:45:30.918Z,21.77
2022-10-13T18:46:39.735Z,23.98
2022-10-13T18:47:44.382Z,25.77
2022-10-13T18:48:46.520Z,26.50
2022-10-13T18:49:54.040Z,29.27
2022-10-13T18:50:56.523Z,23.42
2022-10-13T18:52:01.936Z,21.90
2022-10-13T18:53:03.988Z,20.85
2022-10-13T18:54:09.522Z,21.60
2022-10-13T18:55:14.211Z,22.65
2022-10-13T18:56:17.836Z,22.38
2022-10-13T18:57:22.831Z,22.08
2022-10-13T18:58:25.143Z,21.88
2022-10-13T18:59:30.003Z,23.50
2022-10-13T19:00:32.182Z,23.70
2022-10-13T19:01:41.037Z,23.73
2022-10-13T19:02:45.712Z,23.42
2022-10-13T19:03:51.849Z,23.75
2022-10-13T19:04:54.137Z,22.65
2022-10-13T19:05:59.238Z,20.25
2022-10-13T19:07:04.392Z,21.67
2022-10-13T19:08:09.688Z,21.40
2022-10-13T19:09:17.536Z,20.73
2022-10-13T19:10:22.384Z,20.55
2022-10-13T19:11:27.675Z,20.25
2022-10-13T19:12:32.377Z,20.35
2022-10-13T19:13:34.514Z,20.60
2022-10-13T19:14:39.170Z,19.30
2022-10-13T19:15:41.170Z,19.00
2022-10-13T19:16:48.535Z,18.35
2022-10-13T19:17:50.567Z,18.65
2022-10-13T19:18:55.290Z,18.60
2022-10-13T19:19:59.885Z,18.40
2022-10-13T19:21:02.140Z,18.92
2022-10-13T19:22:07.771Z,20.58
2022-10-13T19:23:14.649Z,21.05
2022-10-13T19:24:19.290Z,22.02
2022-10-13T19:25:21.407Z,22.42
2022-10-13T19:26:29.891Z,20.27
2022-10-13T19:27:34.496Z,20.75
2022-10-13T19:28:36.811Z,22.40
2022-10-13T19:29:41.452Z,23.92
2022-10-13T19:30:46.586Z,26.20
2022-10-13T19:31:53.821Z,26.83
2022-10-13T19:32:55.833Z,28.90
2022-10-13T19:34:01.468Z,31.88
2022-10-13T19:35:09.170Z,31.00
2022-10-13T19:36:13.629Z,30.38
2022-10-13T19:37:19.332Z,28.13
2022-10-13T19:38:21.654Z,27.00
2022-10-13T19:39:27.888Z,27.85
2022-10-13T19:40:29.935Z,26.05
2022-10-13T19:41:36.257Z,26.73
2022-10-13T19:42:38.588Z,26.48
2022-10-13T19:43:43.215Z,26.33
